sensor_id;sensor_type;location;lat;lon;timestamp;P1;durP1;ratioP1;P2;durP2;ratioP2
53036;SDS011;38924;52.134;4.666;2023-06-14T00:01:04;9.98;;;6.20;;
53036;SDS011;38924;52.134;4.666;2023-06-14T00:03:31;13.10;;;6.55;;
53036;SDS011;38924;52.134;4.666;2023-06-14T00:05:57;7.03;;;6.32;;
53036;SDS011;38924;52.134;4.666;2023-06-14T00:08:23;11.65;;;5.50;;
53036;SDS011;38924;52.134;4.666;2023-06-14T00:10:50;12.30;;;6.93;;
53036;SDS011;38924;52.134;4.666;2023-06-14T00:13:15;14.43;;;6.63;;
53036;SDS011;38924;52.134;4.666;2023-06-14T00:15:41;11.52;;;6.75;;
53036;SDS011;38924;52.134;4.666;2023-06-14T00:18:08;11.90;;;6.30;;
53036;SDS011;38924;52.134;4.666;2023-06-14T00:20:35;8.88;;;6.32;;
53036;SDS011;38924;52.134;4.666;2023-06-14T00:23:00;7.03;;;5.95;;
53036;SDS011;38924;52.134;4.666;2023-06-14T00:25:26;10.02;;;6.15;;
53036;SDS011;38924;52.134;4.666;2023-06-14T00:27:52;7.32;;;5.75;;
53036;SDS011;38924;52.134;4.666;2023-06-14T00:30:18;9.95;;;5.15;;
53036;SDS011;38924;52.134;4.666;2023-06-14T00:32:44;11.25;;;6.43;;
53036;SDS011;38924;52.134;4.666;2023-06-14T00:35:10;5.68;;;5.18;;
53036;SDS011;38924;52.134;4.666;2023-06-14T00:37:36;14.45;;;6.20;;
53036;SDS011;38924;52.134;4.666;2023-06-14T00:40:02;13.35;;;6.22;;
53036;SDS011;38924;52.134;4.666;2023-06-14T00:42:30;5.90;;;5.32;;
53036;SDS011;38924;52.134;4.666;2023-06-14T00:44:56;7.40;;;5.75;;
53036;SDS011;38924;52.134;4.666;2023-06-14T00:47:22;8.82;;;5.50;;
53036;SDS011;38924;52.134;4.666;2023-06-14T00:49:49;7.20;;;6.03;;
53036;SDS011;38924;52.134;4.666;2023-06-14T00:52:17;7.93;;;5.25;;
53036;SDS011;38924;52.134;4.666;2023-06-14T00:54:42;13.80;;;5.60;;
53036;SDS011;38924;52.134;4.666;2023-06-14T00:57:12;9.38;;;4.78;;
53036;SDS011;38924;52.134;4.666;2023-06-14T00:59:43;7.72;;;5.78;;
53036;SDS011;38924;52.134;4.666;2023-06-14T01:02:10;13.10;;;6.38;;
53036;SDS011;38924;52.134;4.666;2023-06-14T01:04:36;6.00;;;5.00;;
53036;SDS011;38924;52.134;4.666;2023-06-14T01:07:15;9.88;;;6.30;;
53036;SDS011;38924;52.134;4.666;2023-06-14T01:10:08;10.55;;;4.90;;
53036;SDS011;38924;52.134;4.666;2023-06-14T01:12:36;9.98;;;5.40;;
53036;SDS011;38924;52.134;4.666;2023-06-14T01:15:06;10.48;;;5.13;;
53036;SDS011;38924;52.134;4.666;2023-06-14T01:17:33;7.32;;;5.28;;
53036;SDS011;38924;52.134;4.666;2023-06-14T01:20:01;7.90;;;4.80;;
53036;SDS011;38924;52.134;4.666;2023-06-14T01:22:28;8.95;;;5.32;;
53036;SDS011;38924;52.134;4.666;2023-06-14T01:24:54;11.68;;;5.13;;
53036;SDS011;38924;52.134;4.666;2023-06-14T01:27:22;5.65;;;5.05;;
53036;SDS011;38924;52.134;4.666;2023-06-14T01:29:52;7.78;;;4.55;;
53036;SDS011;38924;52.134;4.666;2023-06-14T01:32:23;12.70;;;4.95;;
53036;SDS011;38924;52.134;4.666;2023-06-14T01:34:49;8.73;;;6.00;;
53036;SDS011;38924;52.134;4.666;2023-06-14T01:37:15;10.35;;;5.82;;
53036;SDS011;38924;52.134;4.666;2023-06-14T01:39:41;7.93;;;5.35;;
53036;SDS011;38924;52.134;4.666;2023-06-14T01:42:08;17.13;;;7.18;;
53036;SDS011;38924;52.134;4.666;2023-06-14T01:44:34;23.05;;;16.45;;
53036;SDS011;38924;52.134;4.666;2023-06-14T01:47:00;12.30;;;6.03;;
53036;SDS011;38924;52.134;4.666;2023-06-14T01:49:26;8.55;;;4.53;;
53036;SDS011;38924;52.134;4.666;2023-06-14T01:51:52;12.32;;;4.68;;
53036;SDS011;38924;52.134;4.666;2023-06-14T01:54:18;15.60;;;4.80;;
53036;SDS011;38924;52.134;4.666;2023-06-14T01:56:46;16.40;;;5.03;;
53036;SDS011;38924;52.134;4.666;2023-06-14T01:59:12;10.30;;;4.90;;
53036;SDS011;38924;52.134;4.666;2023-06-14T02:01:38;7.30;;;4.45;;
53036;SDS011;38924;52.134;4.666;2023-06-14T02:04:04;12.07;;;4.75;;
53036;SDS011;38924;52.134;4.666;2023-06-14T02:06:30;6.55;;;5.53;;
53036;SDS011;38924;52.134;4.666;2023-06-14T02:08:55;8.38;;;4.85;;
53036;SDS011;38924;52.134;4.666;2023-06-14T02:11:21;5.95;;;5.05;;
53036;SDS011;38924;52.134;4.666;2023-06-14T02:13:47;9.85;;;4.45;;
53036;SDS011;38924;52.134;4.666;2023-06-14T02:16:12;8.18;;;4.63;;
53036;SDS011;38924;52.134;4.666;2023-06-14T02:18:41;13.90;;;6.00;;
53036;SDS011;38924;52.134;4.666;2023-06-14T02:21:12;12.10;;;9.40;;
53036;SDS011;38924;52.134;4.666;2023-06-14T02:23:41;5.93;;;4.75;;
53036;SDS011;38924;52.134;4.666;2023-06-14T02:26:06;10.68;;;5.13;;
53036;SDS011;38924;52.134;4.666;2023-06-14T02:28:34;11.80;;;4.45;;
53036;SDS011;38924;52.134;4.666;2023-06-14T02:31:01;20.48;;;5.60;;
53036;SDS011;38924;52.134;4.666;2023-06-14T02:33:26;9.23;;;5.20;;
53036;SDS011;38924;52.134;4.666;2023-06-14T02:35:53;12.00;;;5.25;;
53036;SDS011;38924;52.134;4.666;2023-06-14T02:38:18;10.93;;;4.85;;
53036;SDS011;38924;52.134;4.666;2023-06-14T02:40:50;8.43;;;4.53;;
53036;SDS011;38924;52.134;4.666;2023-06-14T02:43:16;5.57;;;4.22;;
53036;SDS011;38924;52.134;4.666;2023-06-14T02:45:43;11.05;;;5.05;;
53036;SDS011;38924;52.134;4.666;2023-06-14T02:48:08;8.07;;;4.22;;
53036;SDS011;38924;52.134;4.666;2023-06-14T02:50:34;10.10;;;5.43;;
53036;SDS011;38924;52.134;4.666;2023-06-14T02:53:00;8.80;;;4.88;;
53036;SDS011;38924;52.134;4.666;2023-06-14T02:55:26;10.38;;;4.32;;
53036;SDS011;38924;52.134;4.666;2023-06-14T02:57:52;5.72;;;5.20;;
53036;SDS011;38924;52.134;4.666;2023-06-14T03:00:22;6.68;;;4.30;;
53036;SDS011;38924;52.134;4.666;2023-06-14T03:02:48;8.98;;;4.85;;
53036;SDS011;38924;52.134;4.666;2023-06-14T03:05:17;11.90;;;4.47;;
53036;SDS011;38924;52.134;4.666;2023-06-14T03:07:47;15.18;;;5.30;;
53036;SDS011;38924;52.134;4.666;2023-06-14T03:10:17;7.75;;;4.85;;
53036;SDS011;38924;52.134;4.666;2023-06-14T03:12:44;10.40;;;4.35;;
53036;SDS011;38924;52.134;4.666;2023-06-14T03:15:11;6.72;;;5.07;;
53036;SDS011;38924;52.134;4.666;2023-06-14T03:17:41;7.53;;;4.50;;
53036;SDS011;38924;52.134;4.666;2023-06-14T03:20:11;7.75;;;4.63;;
53036;SDS011;38924;52.134;4.666;2023-06-14T03:22:37;11.15;;;5.10;;
53036;SDS011;38924;52.134;4.666;2023-06-14T03:25:03;5.45;;;4.10;;
53036;SDS011;38924;52.134;4.666;2023-06-14T03:27:33;10.93;;;5.80;;
53036;SDS011;38924;52.134;4.666;2023-06-14T03:30:00;12.95;;;4.40;;
53036;SDS011;38924;52.134;4.666;2023-06-14T03:32:26;19.98;;;5.10;;
53036;SDS011;38924;52.134;4.666;2023-06-14T03:34:52;8.77;;;4.38;;
53036;SDS011;38924;52.134;4.666;2023-06-14T03:37:25;7.32;;;4.43;;
53036;SDS011;38924;52.134;4.666;2023-06-14T03:39:54;12.30;;;4.07;;
53036;SDS011;38924;52.134;4.666;2023-06-14T03:42:23;5.47;;;4.85;;
53036;SDS011;38924;52.134;4.666;2023-06-14T03:44:49;6.90;;;3.85;;
53036;SDS011;38924;52.134;4.666;2023-06-14T03:47:16;7.82;;;4.40;;
53036;SDS011;38924;52.134;4.666;2023-06-14T03:49:42;7.18;;;4.78;;
53036;SDS011;38924;52.134;4.666;2023-06-14T03:52:08;8.98;;;4.72;;
53036;SDS011;38924;52.134;4.666;2023-06-14T03:54:37;9.95;;;4.45;;
53036;SDS011;38924;52.134;4.666;2023-06-14T03:57:03;9.85;;;4.60;;
53036;SDS011;38924;52.134;4.666;2023-06-14T03:59:33;11.73;;;6.85;;
53036;SDS011;38924;52.134;4.666;2023-06-14T04:01:59;11.88;;;6.00;;
53036;SDS011;38924;52.134;4.666;2023-06-14T04:04:25;9.32;;;5.00;;
53036;SDS011;38924;52.134;4.666;2023-06-14T04:06:55;8.10;;;5.72;;
53036;SDS011;38924;52.134;4.666;2023-06-14T04:09:24;7.13;;;5.03;;
53036;SDS011;38924;52.134;4.666;2023-06-14T04:11:53;10.50;;;4.63;;
53036;SDS011;38924;52.134;4.666;2023-06-14T04:14:19;9.15;;;4.45;;
53036;SDS011;38924;52.134;4.666;2023-06-14T04:16:45;6.82;;;4.18;;
53036;SDS011;38924;52.134;4.666;2023-06-14T04:19:11;10.10;;;4.38;;
53036;SDS011;38924;52.134;4.666;2023-06-14T04:21:38;7.32;;;4.20;;
53036;SDS011;38924;52.134;4.666;2023-06-14T04:24:04;5.75;;;4.57;;
53036;SDS011;38924;52.134;4.666;2023-06-14T04:26:32;6.47;;;4.88;;
53036;SDS011;38924;52.134;4.666;2023-06-14T04:28:59;13.70;;;5.18;;
53036;SDS011;38924;52.134;4.666;2023-06-14T04:31:30;8.43;;;4.50;;
53036;SDS011;38924;52.134;4.666;2023-06-14T04:34:00;11.88;;;6.53;;
53036;SDS011;38924;52.134;4.666;2023-06-14T04:36:25;12.55;;;5.97;;
53036;SDS011;38924;52.134;4.666;2023-06-14T04:38:53;10.55;;;4.97;;
53036;SDS011;38924;52.134;4.666;2023-06-14T04:41:21;10.73;;;5.32;;
53036;SDS011;38924;52.134;4.666;2023-06-14T04:43:54;11.13;;;5.10;;
53036;SDS011;38924;52.134;4.666;2023-06-14T04:46:20;7.22;;;4.90;;
53036;SDS011;38924;52.134;4.666;2023-06-14T04:48:45;11.05;;;5.03;;
53036;SDS011;38924;52.134;4.666;2023-06-14T04:51:13;6.50;;;5.47;;
53036;SDS011;38924;52.134;4.666;2023-06-14T04:53:38;7.30;;;5.25;;
53036;SDS011;38924;52.134;4.666;2023-06-14T04:56:04;14.65;;;5.80;;
53036;SDS011;38924;52.134;4.666;2023-06-14T04:58:32;12.00;;;5.10;;
53036;SDS011;38924;52.134;4.666;2023-06-14T05:00:58;7.28;;;4.00;;
53036;SDS011;38924;52.134;4.666;2023-06-14T05:03:25;11.88;;;5.57;;
53036;SDS011;38924;52.134;4.666;2023-06-14T05:05:50;8.43;;;5.40;;
53036;SDS011;38924;52.134;4.666;2023-06-14T05:08:18;11.15;;;5.00;;
53036;SDS011;38924;52.134;4.666;2023-06-14T05:10:46;13.80;;;4.50;;
53036;SDS011;38924;52.134;4.666;2023-06-14T05:13:11;13.07;;;5.30;;
53036;SDS011;38924;52.134;4.666;2023-06-14T05:15:37;5.57;;;4.68;;
53036;SDS011;38924;52.134;4.666;2023-06-14T05:18:03;5.68;;;4.35;;
53036;SDS011;38924;52.134;4.666;2023-06-14T05:20:29;9.07;;;6.90;;
53036;SDS011;38924;52.134;4.666;2023-06-14T05:22:54;11.38;;;5.82;;
53036;SDS011;38924;52.134;4.666;2023-06-14T05:25:20;7.93;;;5.57;;
53036;SDS011;38924;52.134;4.666;2023-06-14T05:27:46;10.10;;;5.15;;
53036;SDS011;38924;52.134;4.666;2023-06-14T05:30:13;8.63;;;5.90;;
53036;SDS011;38924;52.134;4.666;2023-06-14T05:32:39;19.70;;;5.07;;
53036;SDS011;38924;52.134;4.666;2023-06-14T05:35:04;8.40;;;4.68;;
53036;SDS011;38924;52.134;4.666;2023-06-14T05:37:31;9.63;;;4.97;;
53036;SDS011;38924;52.134;4.666;2023-06-14T05:39:57;13.45;;;4.82;;
53036;SDS011;38924;52.134;4.666;2023-06-14T05:42:23;15.95;;;5.40;;
53036;SDS011;38924;52.134;4.666;2023-06-14T05:44:48;11.48;;;4.95;;
53036;SDS011;38924;52.134;4.666;2023-06-14T05:47:14;7.13;;;4.60;;
53036;SDS011;38924;52.134;4.666;2023-06-14T05:49:40;8.38;;;5.38;;
53036;SDS011;38924;52.134;4.666;2023-06-14T05:52:06;9.52;;;4.82;;
53036;SDS011;38924;52.134;4.666;2023-06-14T05:54:31;8.70;;;5.32;;
53036;SDS011;38924;52.134;4.666;2023-06-14T05:56:57;12.90;;;5.43;;
53036;SDS011;38924;52.134;4.666;2023-06-14T05:59:27;6.15;;;4.55;;
53036;SDS011;38924;52.134;4.666;2023-06-14T06:01:53;7.18;;;4.72;;
53036;SDS011;38924;52.134;4.666;2023-06-14T06:04:18;8.43;;;4.57;;
53036;SDS011;38924;52.134;4.666;2023-06-14T06:06:45;15.10;;;5.60;;
53036;SDS011;38924;52.134;4.666;2023-06-14T06:09:12;13.07;;;10.07;;
53036;SDS011;38924;52.134;4.666;2023-06-14T06:11:40;6.97;;;6.28;;
53036;SDS011;38924;52.134;4.666;2023-06-14T06:14:06;10.18;;;5.00;;
53036;SDS011;38924;52.134;4.666;2023-06-14T06:16:31;8.27;;;5.47;;
53036;SDS011;38924;52.134;4.666;2023-06-14T06:18:57;8.93;;;5.97;;
53036;SDS011;38924;52.134;4.666;2023-06-14T06:21:23;8.25;;;6.45;;
53036;SDS011;38924;52.134;4.666;2023-06-14T06:23:49;10.05;;;5.18;;
53036;SDS011;38924;52.134;4.666;2023-06-14T06:26:17;8.68;;;6.45;;
53036;SDS011;38924;52.134;4.666;2023-06-14T06:28:46;6.38;;;5.88;;
53036;SDS011;38924;52.134;4.666;2023-06-14T06:31:11;8.13;;;6.43;;
53036;SDS011;38924;52.134;4.666;2023-06-14T06:33:40;12.27;;;6.53;;
53036;SDS011;38924;52.134;4.666;2023-06-14T06:36:06;11.23;;;6.70;;
53036;SDS011;38924;52.134;4.666;2023-06-14T06:38:31;9.05;;;8.30;;
53036;SDS011;38924;52.134;4.666;2023-06-14T06:40:57;7.82;;;6.70;;
53036;SDS011;38924;52.134;4.666;2023-06-14T06:43:23;12.57;;;8.13;;
53036;SDS011;38924;52.134;4.666;2023-06-14T06:45:49;11.82;;;7.20;;
53036;SDS011;38924;52.134;4.666;2023-06-14T06:48:15;18.15;;;10.20;;
53036;SDS011;38924;52.134;4.666;2023-06-14T06:50:41;11.00;;;8.00;;
53036;SDS011;38924;52.134;4.666;2023-06-14T06:53:07;9.40;;;5.88;;
53036;SDS011;38924;52.134;4.666;2023-06-14T06:55:32;11.50;;;8.32;;
53036;SDS011;38924;52.134;4.666;2023-06-14T06:57:58;11.95;;;6.80;;
53036;SDS011;38924;52.134;4.666;2023-06-14T07:00:25;8.15;;;7.30;;
53036;SDS011;38924;52.134;4.666;2023-06-14T07:02:51;9.10;;;8.20;;
53036;SDS011;38924;52.134;4.666;2023-06-14T07:05:17;8.43;;;7.45;;
53036;SDS011;38924;52.134;4.666;2023-06-14T07:07:43;9.65;;;8.15;;
53036;SDS011;38924;52.134;4.666;2023-06-14T07:10:09;12.75;;;7.93;;
53036;SDS011;38924;52.134;4.666;2023-06-14T07:12:35;9.75;;;7.47;;
53036;SDS011;38924;52.134;4.666;2023-06-14T07:15:06;10.48;;;7.38;;
53036;SDS011;38924;52.134;4.666;2023-06-14T07:17:33;11.35;;;7.53;;
53036;SDS011;38924;52.134;4.666;2023-06-14T07:19:59;10.30;;;7.20;;
53036;SDS011;38924;52.134;4.666;2023-06-14T07:22:26;8.00;;;7.32;;
53036;SDS011;38924;52.134;4.666;2023-06-14T07:24:52;12.73;;;6.22;;
53036;SDS011;38924;52.134;4.666;2023-06-14T07:27:17;9.18;;;7.65;;
53036;SDS011;38924;52.134;4.666;2023-06-14T07:29:43;11.23;;;8.65;;
53036;SDS011;38924;52.134;4.666;2023-06-14T07:32:09;13.82;;;8.02;;
53036;SDS011;38924;52.134;4.666;2023-06-14T07:34:34;10.40;;;7.57;;
53036;SDS011;38924;52.134;4.666;2023-06-14T07:37:00;8.88;;;7.75;;
53036;SDS011;38924;52.134;4.666;2023-06-14T07:39:26;10.48;;;9.63;;
53036;SDS011;38924;52.134;4.666;2023-06-14T07:41:51;8.25;;;7.45;;
53036;SDS011;38924;52.134;4.666;2023-06-14T07:44:17;12.90;;;7.28;;
53036;SDS011;38924;52.134;4.666;2023-06-14T07:46:42;10.82;;;8.35;;
53036;SDS011;38924;52.134;4.666;2023-06-14T07:49:08;11.68;;;7.40;;
53036;SDS011;38924;52.134;4.666;2023-06-14T07:51:34;8.20;;;7.43;;
53036;SDS011;38924;52.134;4.666;2023-06-14T07:54:00;15.77;;;9.95;;
53036;SDS011;38924;52.134;4.666;2023-06-14T07:56:27;15.63;;;8.32;;
53036;SDS011;38924;52.134;4.666;2023-06-14T07:58:53;12.60;;;9.63;;
53036;SDS011;38924;52.134;4.666;2023-06-14T08:01:19;8.40;;;7.57;;
53036;SDS011;38924;52.134;4.666;2023-06-14T08:03:45;11.85;;;8.82;;
53036;SDS011;38924;52.134;4.666;2023-06-14T08:06:11;13.82;;;8.27;;
53036;SDS011;38924;52.134;4.666;2023-06-14T08:08:37;16.90;;;9.00;;
53036;SDS011;38924;52.134;4.666;2023-06-14T08:11:05;14.13;;;7.65;;
53036;SDS011;38924;52.134;4.666;2023-06-14T08:13:31;10.40;;;8.55;;
53036;SDS011;38924;52.134;4.666;2023-06-14T08:15:57;13.48;;;9.18;;
53036;SDS011;38924;52.134;4.666;2023-06-14T08:18:26;14.18;;;9.15;;
53036;SDS011;38924;52.134;4.666;2023-06-14T08:20:52;11.15;;;8.60;;
53036;SDS011;38924;52.134;4.666;2023-06-14T08:23:19;16.85;;;8.15;;
53036;SDS011;38924;52.134;4.666;2023-06-14T08:25:46;13.68;;;8.40;;
53036;SDS011;38924;52.134;4.666;2023-06-14T08:28:12;11.00;;;7.55;;
53036;SDS011;38924;52.134;4.666;2023-06-14T08:30:37;13.13;;;9.43;;
53036;SDS011;38924;52.134;4.666;2023-06-14T08:33:03;26.25;;;8.57;;
53036;SDS011;38924;52.134;4.666;2023-06-14T08:35:29;14.55;;;8.15;;
53036;SDS011;38924;52.134;4.666;2023-06-14T08:37:54;14.15;;;8.02;;
53036;SDS011;38924;52.134;4.666;2023-06-14T08:40:22;13.27;;;8.13;;
53036;SDS011;38924;52.134;4.666;2023-06-14T08:42:51;7.97;;;7.15;;
53036;SDS011;38924;52.134;4.666;2023-06-14T08:45:18;12.52;;;8.80;;
53036;SDS011;38924;52.134;4.666;2023-06-14T08:47:44;12.38;;;9.65;;
53036;SDS011;38924;52.134;4.666;2023-06-14T08:50:11;12.65;;;8.07;;
53036;SDS011;38924;52.134;4.666;2023-06-14T08:52:37;9.27;;;8.57;;
53036;SDS011;38924;52.134;4.666;2023-06-14T08:55:08;18.52;;;9.63;;
53036;SDS011;38924;52.134;4.666;2023-06-14T08:57:35;13.35;;;10.68;;
53036;SDS011;38924;52.134;4.666;2023-06-14T09:00:03;11.98;;;9.50;;
53036;SDS011;38924;52.134;4.666;2023-06-14T09:02:38;14.25;;;8.50;;
53036;SDS011;38924;52.134;4.666;2023-06-14T09:05:09;11.82;;;7.40;;
53036;SDS011;38924;52.134;4.666;2023-06-14T09:07:37;12.18;;;8.43;;
53036;SDS011;38924;52.134;4.666;2023-06-14T09:10:14;14.70;;;8.82;;
53036;SDS011;38924;52.134;4.666;2023-06-14T09:12:40;15.00;;;8.93;;
53036;SDS011;38924;52.134;4.666;2023-06-14T09:15:06;9.30;;;7.35;;
53036;SDS011;38924;52.134;4.666;2023-06-14T09:17:37;10.38;;;7.38;;
53036;SDS011;38924;52.134;4.666;2023-06-14T09:20:03;12.07;;;8.15;;
53036;SDS011;38924;52.134;4.666;2023-06-14T09:22:32;9.40;;;8.52;;
53036;SDS011;38924;52.134;4.666;2023-06-14T09:24:58;13.23;;;8.77;;
53036;SDS011;38924;52.134;4.666;2023-06-14T09:27:27;9.65;;;7.78;;
53036;SDS011;38924;52.134;4.666;2023-06-14T09:29:53;8.98;;;8.07;;
53036;SDS011;38924;52.134;4.666;2023-06-14T09:32:20;9.77;;;8.80;;
53036;SDS011;38924;52.134;4.666;2023-06-14T09:34:45;8.75;;;7.90;;
53036;SDS011;38924;52.134;4.666;2023-06-14T09:37:11;11.10;;;9.00;;
53036;SDS011;38924;52.134;4.666;2023-06-14T09:39:49;8.63;;;7.90;;
53036;SDS011;38924;52.134;4.666;2023-06-14T09:42:16;11.35;;;8.90;;
53036;SDS011;38924;52.134;4.666;2023-06-14T09:44:43;10.45;;;8.10;;
53036;SDS011;38924;52.134;4.666;2023-06-14T09:47:09;11.52;;;9.25;;
53036;SDS011;38924;52.134;4.666;2023-06-14T09:49:38;12.50;;;9.23;;
53036;SDS011;38924;52.134;4.666;2023-06-14T09:52:05;10.55;;;9.63;;
53036;SDS011;38924;52.134;4.666;2023-06-14T09:54:32;9.35;;;8.68;;
53036;SDS011;38924;52.134;4.666;2023-06-14T09:56:59;8.63;;;7.97;;
53036;SDS011;38924;52.134;4.666;2023-06-14T09:59:27;9.43;;;8.18;;
53036;SDS011;38924;52.134;4.666;2023-06-14T10:02:00;8.50;;;7.90;;
53036;SDS011;38924;52.134;4.666;2023-06-14T10:04:29;9.95;;;9.02;;
53036;SDS011;38924;52.134;4.666;2023-06-14T10:06:56;10.25;;;9.55;;
53036;SDS011;38924;52.134;4.666;2023-06-14T10:09:22;8.90;;;7.82;;
53036;SDS011;38924;52.134;4.666;2023-06-14T10:11:47;10.63;;;8.35;;
53036;SDS011;38924;52.134;4.666;2023-06-14T10:14:13;10.63;;;8.57;;
53036;SDS011;38924;52.134;4.666;2023-06-14T10:16:45;15.52;;;9.05;;
53036;SDS011;38924;52.134;4.666;2023-06-14T10:19:18;12.60;;;8.52;;
53036;SDS011;38924;52.134;4.666;2023-06-14T10:22:01;8.38;;;7.60;;
53036;SDS011;38924;52.134;4.666;2023-06-14T10:24:45;11.40;;;8.10;;
53036;SDS011;38924;52.134;4.666;2023-06-14T10:27:14;10.27;;;7.85;;
53036;SDS011;38924;52.134;4.666;2023-06-14T10:32:18;9.20;;;8.40;;
53036;SDS011;38924;52.134;4.666;2023-06-14T10:34:44;9.02;;;8.23;;
53036;SDS011;38924;52.134;4.666;2023-06-14T10:37:11;7.80;;;7.13;;
53036;SDS011;38924;52.134;4.666;2023-06-14T10:39:43;11.32;;;8.45;;
53036;SDS011;38924;52.134;4.666;2023-06-14T10:44:40;8.02;;;7.53;;
53036;SDS011;38924;52.134;4.666;2023-06-14T10:47:09;11.48;;;10.10;;
53036;SDS011;38924;52.134;4.666;2023-06-14T10:49:36;8.98;;;8.38;;
53036;SDS011;38924;52.134;4.666;2023-06-14T10:52:12;9.70;;;8.95;;
53036;SDS011;38924;52.134;4.666;2023-06-14T10:57:26;11.00;;;9.90;;
53036;SDS011;38924;52.134;4.666;2023-06-14T10:59:52;9.55;;;9.02;;
53036;SDS011;38924;52.134;4.666;2023-06-14T11:05:03;12.25;;;8.77;;
53036;SDS011;38924;52.134;4.666;2023-06-14T11:12:27;10.38;;;8.82;;
53036;SDS011;38924;52.134;4.666;2023-06-14T11:14:53;10.25;;;7.95;;
53036;SDS011;38924;52.134;4.666;2023-06-14T11:17:19;8.45;;;7.78;;
53036;SDS011;38924;52.134;4.666;2023-06-14T11:19:45;10.15;;;9.20;;
53036;SDS011;38924;52.134;4.666;2023-06-14T11:22:11;10.50;;;9.48;;
53036;SDS011;38924;52.134;4.666;2023-06-14T11:24:37;11.25;;;9.73;;
53036;SDS011;38924;52.134;4.666;2023-06-14T11:27:03;10.32;;;9.63;;
53036;SDS011;38924;52.134;4.666;2023-06-14T11:29:29;10.90;;;10.00;;
53036;SDS011;38924;52.134;4.666;2023-06-14T11:31:56;8.35;;;7.75;;
53036;SDS011;38924;52.134;4.666;2023-06-14T11:34:21;8.07;;;7.47;;
53036;SDS011;38924;52.134;4.666;2023-06-14T11:36:47;10.77;;;9.98;;
53036;SDS011;38924;52.134;4.666;2023-06-14T11:39:13;9.32;;;8.40;;
53036;SDS011;38924;52.134;4.666;2023-06-14T11:41:40;9.48;;;8.77;;
53036;SDS011;38924;52.134;4.666;2023-06-14T11:44:06;10.48;;;9.52;;
53036;SDS011;38924;52.134;4.666;2023-06-14T11:46:32;9.70;;;8.85;;
53036;SDS011;38924;52.134;4.666;2023-06-14T11:48:58;9.05;;;8.07;;
53036;SDS011;38924;52.134;4.666;2023-06-14T11:51:24;9.88;;;9.18;;
53036;SDS011;38924;52.134;4.666;2023-06-14T11:53:50;7.90;;;7.32;;
53036;SDS011;38924;52.134;4.666;2023-06-14T11:56:16;8.40;;;7.75;;
53036;SDS011;38924;52.134;4.666;2023-06-14T11:58:43;11.57;;;10.50;;
53036;SDS011;38924;52.134;4.666;2023-06-14T12:01:09;13.80;;;9.10;;
53036;SDS011;38924;52.134;4.666;2023-06-14T12:03:34;11.75;;;8.68;;
53036;SDS011;38924;52.134;4.666;2023-06-14T12:06:04;17.20;;;8.13;;
53036;SDS011;38924;52.134;4.666;2023-06-14T12:08:36;21.70;;;9.43;;
53036;SDS011;38924;52.134;4.666;2023-06-14T12:11:11;9.38;;;8.68;;
53036;SDS011;38924;52.134;4.666;2023-06-14T12:13:38;16.38;;;8.40;;
53036;SDS011;38924;52.134;4.666;2023-06-14T12:16:04;10.15;;;8.88;;
53036;SDS011;38924;52.134;4.666;2023-06-14T12:18:37;10.40;;;9.50;;
53036;SDS011;38924;52.134;4.666;2023-06-14T12:21:06;10.05;;;9.45;;
53036;SDS011;38924;52.134;4.666;2023-06-14T12:23:45;10.98;;;10.15;;
53036;SDS011;38924;52.134;4.666;2023-06-14T12:26:14;8.40;;;7.78;;
53036;SDS011;38924;52.134;4.666;2023-06-14T12:28:42;9.95;;;8.77;;
53036;SDS011;38924;52.134;4.666;2023-06-14T12:31:08;10.77;;;7.70;;
53036;SDS011;38924;52.134;4.666;2023-06-14T12:33:38;11.15;;;9.25;;
53036;SDS011;38924;52.134;4.666;2023-06-14T12:36:04;8.52;;;7.80;;
53036;SDS011;38924;52.134;4.666;2023-06-14T12:38:31;13.13;;;8.55;;
53036;SDS011;38924;52.134;4.666;2023-06-14T12:40:57;8.02;;;7.43;;
53036;SDS011;38924;52.134;4.666;2023-06-14T12:43:23;10.68;;;9.65;;
53036;SDS011;38924;52.134;4.666;2023-06-14T12:45:48;11.63;;;8.75;;
53036;SDS011;38924;52.134;4.666;2023-06-14T12:48:14;11.10;;;7.72;;
53036;SDS011;38924;52.134;4.666;2023-06-14T12:50:40;13.07;;;7.75;;
53036;SDS011;38924;52.134;4.666;2023-06-14T12:53:06;10.77;;;9.75;;
53036;SDS011;38924;52.134;4.666;2023-06-14T12:55:32;9.52;;;8.63;;
53036;SDS011;38924;52.134;4.666;2023-06-14T12:57:58;10.32;;;8.50;;
53036;SDS011;38924;52.134;4.666;2023-06-14T13:00:24;12.00;;;11.02;;
53036;SDS011;38924;52.134;4.666;2023-06-14T13:02:51;10.27;;;8.45;;
53036;SDS011;38924;52.134;4.666;2023-06-14T13:05:17;14.10;;;10.18;;
53036;SDS011;38924;52.134;4.666;2023-06-14T13:07:43;26.77;;;10.60;;
53036;SDS011;38924;52.134;4.666;2023-06-14T13:10:10;9.27;;;8.68;;
53036;SDS011;38924;52.134;4.666;2023-06-14T13:12:36;8.85;;;8.35;;
53036;SDS011;38924;52.134;4.666;2023-06-14T13:15:02;10.90;;;9.85;;
53036;SDS011;38924;52.134;4.666;2023-06-14T13:17:28;11.82;;;8.63;;
53036;SDS011;38924;52.134;4.666;2023-06-14T13:19:54;10.77;;;9.77;;
53036;SDS011;38924;52.134;4.666;2023-06-14T13:22:20;9.38;;;8.65;;
53036;SDS011;38924;52.134;4.666;2023-06-14T13:24:45;11.93;;;10.57;;
53036;SDS011;38924;52.134;4.666;2023-06-14T13:27:11;23.73;;;10.45;;
53036;SDS011;38924;52.134;4.666;2023-06-14T13:29:39;26.30;;;9.20;;
53036;SDS011;38924;52.134;4.666;2023-06-14T13:32:05;10.20;;;7.97;;
53036;SDS011;38924;52.134;4.666;2023-06-14T13:34:31;8.40;;;7.55;;
53036;SDS011;38924;52.134;4.666;2023-06-14T13:36:57;12.35;;;11.10;;
53036;SDS011;38924;52.134;4.666;2023-06-14T13:39:25;10.10;;;9.20;;
53036;SDS011;38924;52.134;4.666;2023-06-14T13:41:50;10.73;;;9.75;;
53036;SDS011;38924;52.134;4.666;2023-06-14T13:44:16;13.50;;;9.77;;
53036;SDS011;38924;52.134;4.666;2023-06-14T13:46:44;15.07;;;10.32;;
53036;SDS011;38924;52.134;4.666;2023-06-14T13:49:10;11.43;;;10.27;;
53036;SDS011;38924;52.134;4.666;2023-06-14T13:51:36;9.95;;;9.05;;
53036;SDS011;38924;52.134;4.666;2023-06-14T13:54:01;10.60;;;9.63;;
53036;SDS011;38924;52.134;4.666;2023-06-14T13:56:27;24.35;;;8.85;;
53036;SDS011;38924;52.134;4.666;2023-06-14T13:58:53;11.35;;;10.23;;
53036;SDS011;38924;52.134;4.666;2023-06-14T14:01:18;11.48;;;10.48;;
53036;SDS011;38924;52.134;4.666;2023-06-14T14:03:48;11.00;;;9.98;;
53036;SDS011;38924;52.134;4.666;2023-06-14T14:06:15;10.80;;;10.02;;
53036;SDS011;38924;52.134;4.666;2023-06-14T14:08:42;10.05;;;9.35;;
53036;SDS011;38924;52.134;4.666;2023-06-14T14:11:07;11.05;;;10.02;;
53036;SDS011;38924;52.134;4.666;2023-06-14T14:13:34;10.90;;;8.05;;
53036;SDS011;38924;52.134;4.666;2023-06-14T14:16:02;9.75;;;8.93;;
53036;SDS011;38924;52.134;4.666;2023-06-14T14:18:28;8.65;;;7.90;;
53036;SDS011;38924;52.134;4.666;2023-06-14T14:20:54;8.20;;;7.40;;
53036;SDS011;38924;52.134;4.666;2023-06-14T14:23:19;8.55;;;7.95;;
53036;SDS011;38924;52.134;4.666;2023-06-14T14:25:46;9.20;;;8.23;;
53036;SDS011;38924;52.134;4.666;2023-06-14T14:28:11;9.40;;;8.60;;
53036;SDS011;38924;52.134;4.666;2023-06-14T14:30:39;8.45;;;7.75;;
53036;SDS011;38924;52.134;4.666;2023-06-14T14:33:05;11.95;;;10.20;;
53036;SDS011;38924;52.134;4.666;2023-06-14T14:35:31;8.15;;;7.65;;
53036;SDS011;38924;52.134;4.666;2023-06-14T14:37:57;9.68;;;8.02;;
53036;SDS011;38924;52.134;4.666;2023-06-14T14:40:22;10.63;;;9.82;;
53036;SDS011;38924;52.134;4.666;2023-06-14T14:42:48;8.75;;;7.88;;
53036;SDS011;38924;52.134;4.666;2023-06-14T14:45:14;8.93;;;8.18;;
53036;SDS011;38924;52.134;4.666;2023-06-14T14:47:39;9.85;;;9.10;;
53036;SDS011;38924;52.134;4.666;2023-06-14T14:50:05;9.10;;;8.27;;
53036;SDS011;38924;52.134;4.666;2023-06-14T14:52:34;8.82;;;7.97;;
53036;SDS011;38924;52.134;4.666;2023-06-14T14:55:00;8.40;;;7.78;;